Terminal Aerodrome Forecast
Issued by NWS

Home | Current Version | Previous Version | Text Only | Print | Product List | Glossary On
Versions: 1 2 3 4 5 6 7 8 9 10 11 12
000
FTUS45 KGJT 242353
TAFRIL
TAF
KRIL 242353Z 2500/2524 33008KT P6SM VCTS BKN100CB
     FM250200 14012G22KT P6SM VCTS BKN100CB
     FM250500 13006KT P6SM VCTS BKN090CB
     FM251200 VRB03KT P6SM VCTS BKN070CB
     FM251900 24010G18KT P6SM VCTS BKN070CB=

USA.gov is the U.S. government's official web portal to all federal, state and local government web resources and services.